createdAt,value
2018-04-12T00:00:11.584Z,11.85
2018-04-12T00:02:41.899Z,13.75
2018-04-12T00:05:13.622Z,13.30
2018-04-12T00:07:42.998Z,10.68
2018-04-12T00:10:11.851Z,12.23
2018-04-12T00:12:40.876Z,12.90
2018-04-12T00:15:09.214Z,11.12
2018-04-12T00:17:38.211Z,14.38
2018-04-12T00:20:06.870Z,10.23
2018-04-12T00:22:36.341Z,12.05
2018-04-12T00:25:07.029Z,13.23
2018-04-12T00:27:38.008Z,11.88
2018-04-12T00:30:08.192Z,10.82
2018-04-12T00:32:37.352Z,12.02
2018-04-12T00:35:05.872Z,12.05
2018-04-12T00:37:34.399Z,14.65
2018-04-12T00:40:03.445Z,11.63
2018-04-12T00:42:31.858Z,11.68
2018-04-12T00:45:00.941Z,12.68
2018-04-12T00:47:32.267Z,12.35
2018-04-12T00:50:01.587Z,12.73
2018-04-12T00:52:30.867Z,13.50
2018-04-12T00:55:00.065Z,10.57
2018-04-12T00:57:29.742Z,11.57
2018-04-12T00:59:58.787Z,9.82
2018-04-12T01:02:28.478Z,10.68
2018-04-12T01:04:59.281Z,10.00
2018-04-12T01:07:29.229Z,11.85
2018-04-12T01:09:58.152Z,11.82
2018-04-12T01:12:29.302Z,11.77
2018-04-12T01:14:59.146Z,13.45
2018-04-12T01:17:29.947Z,9.20
2018-04-12T01:20:00.208Z,12.23
2018-04-12T01:22:30.256Z,14.13
2018-04-12T01:24:58.803Z,13.75
2018-04-12T01:27:27.188Z,11.70
2018-04-12T01:29:58.968Z,9.80
2018-04-12T01:32:29.971Z,9.18
2018-04-12T01:35:00.141Z,11.82
2018-04-12T01:37:29.895Z,10.55
2018-04-12T01:40:01.877Z,9.50
2018-04-12T01:42:30.992Z,14.90
2018-04-12T01:45:01.732Z,11.27
2018-04-12T01:47:30.521Z,9.95
2018-04-12T01:49:59.466Z,12.00
2018-04-12T01:52:29.761Z,12.10
2018-04-12T01:55:00.966Z,12.75
2018-04-12T01:57:30.157Z,10.05
2018-04-12T02:00:01.243Z,10.75
2018-04-12T02:02:30.132Z,10.48
2018-04-12T02:04:59.365Z,10.18
2018-04-12T02:07:30.099Z,10.38
2018-04-12T02:09:58.884Z,11.25
2018-04-12T02:12:32.115Z,10.68
2018-04-12T02:15:01.711Z,11.52
2018-04-12T02:17:31.877Z,11.05
2018-04-12T02:20:02.253Z,11.75
2018-04-12T02:22:32.392Z,8.45
2018-04-12T02:25:01.958Z,11.38
2018-04-12T02:27:30.369Z,10.95
2018-04-12T02:30:00.535Z,12.20
2018-04-12T02:32:28.931Z,11.70
2018-04-12T02:34:59.189Z,10.50
2018-04-12T02:37:30.588Z,9.45
2018-04-12T02:40:00.835Z,12.98
2018-04-12T02:42:29.807Z,13.02
2018-04-12T02:44:59.400Z,11.32
2018-04-12T02:47:28.062Z,11.30
2018-04-12T02:49:57.203Z,16.15
2018-04-12T02:52:27.727Z,13.50
2018-04-12T02:54:56.759Z,10.65
2018-04-12T02:57:25.582Z,11.07
2018-04-12T02:59:55.123Z,13.50
2018-04-12T03:02:24.794Z,9.23
2018-04-12T03:04:52.739Z,10.77
2018-04-12T03:07:22.240Z,9.27
2018-04-12T03:09:51.695Z,14.68
2018-04-12T03:12:22.136Z,15.13
2018-04-12T03:14:52.755Z,11.75
2018-04-12T03:17:22.502Z,9.00
2018-04-12T03:19:51.108Z,12.18
2018-04-12T03:22:20.660Z,12.35
2018-04-12T03:24:49.132Z,11.32
2018-04-12T03:27:17.564Z,14.20
2018-04-12T03:29:47.557Z,12.48
2018-04-12T03:32:16.715Z,11.07
2018-04-12T03:34:44.378Z,10.52
2018-04-12T03:37:14.467Z,9.35
2018-04-12T03:39:45.169Z,11.70
2018-04-12T03:42:14.258Z,12.73
2018-04-12T03:44:43.074Z,10.70
2018-04-12T03:47:12.219Z,12.37
2018-04-12T03:49:42.482Z,11.60
2018-04-12T03:52:12.663Z,10.02
2018-04-12T03:54:40.413Z,15.70
2018-04-12T03:57:08.970Z,10.23
2018-04-12T03:59:37.195Z,18.90
2018-04-12T04:02:05.732Z,11.40
2018-04-12T04:04:34.519Z,12.43
2018-04-12T04:07:04.803Z,12.98
2018-04-12T04:09:32.939Z,11.85
2018-04-12T04:12:03.391Z,17.37
2018-04-12T04:18:14.706Z,10.15
2018-04-12T04:20:57.487Z,13.00
2018-04-12T04:23:30.595Z,13.15
2018-04-12T04:26:03.928Z,13.73
2018-04-12T04:28:37.363Z,13.88
2018-04-12T04:31:09.885Z,13.77
2018-04-12T04:33:42.140Z,11.32
2018-04-12T04:36:17.660Z,11.88
2018-04-12T04:38:49.538Z,13.30
2018-04-12T04:41:22.530Z,11.80
2018-04-12T04:43:56.458Z,11.85
2018-04-12T04:46:29.988Z,10.10
2018-04-12T04:49:02.908Z,12.18
2018-04-12T04:51:36.061Z,8.30
2018-04-12T04:54:09.803Z,10.20
2018-04-12T04:56:44.844Z,15.48
2018-04-12T04:59:17.318Z,13.90
2018-04-12T05:01:49.801Z,13.02
2018-04-12T05:04:22.692Z,10.63
2018-04-12T05:06:56.645Z,9.38
2018-04-12T05:09:29.578Z,11.55
2018-04-12T05:12:02.540Z,9.27
2018-04-12T05:14:36.120Z,9.90
2018-04-12T05:17:08.570Z,9.38
2018-04-12T05:19:41.359Z,11.60
2018-04-12T05:22:15.095Z,16.23
2018-04-12T05:24:50.554Z,12.57
2018-04-12T05:27:23.072Z,10.73
2018-04-12T05:29:55.380Z,11.60
2018-04-12T05:32:29.666Z,15.38
2018-04-12T05:35:02.821Z,17.35
2018-04-12T05:37:35.247Z,12.88
2018-04-12T05:40:08.535Z,16.50
2018-04-12T05:42:40.826Z,11.30
2018-04-12T05:45:13.570Z,8.75
2018-04-12T05:47:47.158Z,12.75
2018-04-12T05:50:18.751Z,9.88
2018-04-12T05:52:51.677Z,12.90
2018-04-12T05:55:25.238Z,11.32
2018-04-12T05:57:57.081Z,9.40
2018-04-12T06:00:30.110Z,11.68
2018-04-12T06:03:02.215Z,9.10
2018-04-12T06:05:35.279Z,7.62
2018-04-12T06:08:09.727Z,6.28
2018-04-12T06:10:43.249Z,5.37
2018-04-12T06:13:16.216Z,6.57
2018-04-12T06:15:49.328Z,8.88
2018-04-12T06:18:20.490Z,8.73
2018-04-12T06:20:53.196Z,8.55
2018-04-12T06:23:25.327Z,10.80
2018-04-12T06:25:59.042Z,9.27
2018-04-12T06:28:31.063Z,13.93
2018-04-12T06:31:05.834Z,9.10
2018-04-12T06:33:37.851Z,9.30
2018-04-12T06:36:13.884Z,10.65
2018-04-12T06:38:45.918Z,4.87
2018-04-12T06:41:19.133Z,8.57
2018-04-12T06:43:50.684Z,9.80
2018-04-12T06:46:23.330Z,9.25
2018-04-12T06:48:56.772Z,7.15
2018-04-12T06:51:29.260Z,7.87
2018-04-12T06:54:03.920Z,6.20
2018-04-12T06:56:37.553Z,7.12
2018-04-12T06:59:10.241Z,5.80
2018-04-12T07:01:42.929Z,8.30
2018-04-12T07:04:15.800Z,5.82
2018-04-12T07:06:48.272Z,7.47
2018-04-12T07:09:22.333Z,8.65
2018-04-12T07:11:55.958Z,6.75
2018-04-12T07:14:29.423Z,9.43
2018-04-12T07:17:02.460Z,8.23
2018-04-12T07:19:35.207Z,7.37
2018-04-12T07:22:06.895Z,8.52
2018-04-12T07:24:38.638Z,9.88
2018-04-12T07:27:10.603Z,8.10
2018-04-12T07:29:44.238Z,4.65
2018-04-12T07:32:17.317Z,4.78
2018-04-12T07:34:50.419Z,9.35
2018-04-12T07:37:22.636Z,6.37
2018-04-12T07:39:56.242Z,9.30
2018-04-12T07:42:29.623Z,6.55
2018-04-12T07:45:02.165Z,9.95
2018-04-12T07:47:34.481Z,7.47
2018-04-12T07:50:06.909Z,9.48
2018-04-12T07:52:39.918Z,5.32
2018-04-12T07:55:13.829Z,7.50
2018-04-12T07:57:47.278Z,7.70
2018-04-12T08:00:19.215Z,7.15
2018-04-12T08:02:54.053Z,9.80
2018-04-12T08:05:26.488Z,9.33
2018-04-12T08:07:58.361Z,7.60
2018-04-12T08:10:31.013Z,7.80
2018-04-12T08:13:02.398Z,6.70
2018-04-12T08:15:36.072Z,5.30
2018-04-12T08:18:09.623Z,7.37
2018-04-12T08:20:41.772Z,6.40
2018-04-12T08:23:16.407Z,7.53
2018-04-12T08:25:48.551Z,10.85
2018-04-12T08:28:19.751Z,9.93
2018-04-12T08:30:54.234Z,6.07
2018-04-12T08:33:26.278Z,4.77
2018-04-12T08:35:58.111Z,7.60
2018-04-12T08:38:31.271Z,11.67
2018-04-12T08:41:04.651Z,7.13
2018-04-12T08:43:36.383Z,7.47
2018-04-12T08:46:09.846Z,7.90
2018-04-12T08:48:42.368Z,8.07
2018-04-12T08:51:14.249Z,7.00
2018-04-12T08:53:47.244Z,7.13
2018-04-12T08:56:19.579Z,8.47
2018-04-12T08:58:53.075Z,6.53
2018-04-12T09:01:29.765Z,9.43
2018-04-12T09:04:01.132Z,6.03
2018-04-12T09:06:32.703Z,4.37
2018-04-12T09:09:05.776Z,7.83
2018-04-12T09:11:39.199Z,6.30
2018-04-12T09:14:12.162Z,5.87
2018-04-12T09:16:44.179Z,7.73
2018-04-12T09:19:15.222Z,10.73
2018-04-12T09:21:47.123Z,7.23
2018-04-12T09:24:19.052Z,6.80
2018-04-12T09:26:52.476Z,6.53
2018-04-12T09:29:24.819Z,9.60
2018-04-12T09:31:59.492Z,10.73
2018-04-12T09:34:31.881Z,10.07
2018-04-12T09:37:05.083Z,14.53
2018-04-12T09:39:36.869Z,7.70
2018-04-12T09:42:08.612Z,6.87
2018-04-12T09:44:40.451Z,8.13
2018-04-12T09:47:13.006Z,7.20
2018-04-12T09:49:47.434Z,7.33
2018-04-12T09:52:19.592Z,8.33
2018-04-12T09:54:54.061Z,7.57
2018-04-12T09:57:25.628Z,8.30
2018-04-12T09:59:58.055Z,6.53
2018-04-12T10:02:29.731Z,8.80
2018-04-12T10:05:02.798Z,9.77
2018-04-12T10:07:39.559Z,5.57
2018-04-12T10:10:13.778Z,7.87
2018-04-12T10:12:45.947Z,8.40
2018-04-12T10:15:18.767Z,7.20
2018-04-12T10:17:51.783Z,10.33
2018-04-12T10:20:24.175Z,7.40
2018-04-12T10:22:56.683Z,7.63
2018-04-12T10:25:29.428Z,9.03
2018-04-12T10:28:01.055Z,7.57
2018-04-12T10:30:34.679Z,6.70
2018-04-12T10:33:07.216Z,9.50
2018-04-12T10:35:39.584Z,7.83
2018-04-12T10:38:12.380Z,10.27
2018-04-12T10:40:43.916Z,8.47
2018-04-12T10:43:15.767Z,11.50
2018-04-12T10:45:48.698Z,7.07
2018-04-12T10:48:20.966Z,7.63
2018-04-12T10:50:53.183Z,11.53
2018-04-12T10:53:26.243Z,9.03
2018-04-12T10:55:58.247Z,14.60
2018-04-12T10:58:30.442Z,7.23
2018-04-12T11:01:02.308Z,8.70
2018-04-12T11:03:34.391Z,9.07
2018-04-12T11:06:07.783Z,5.30
2018-04-12T11:08:39.233Z,5.87
2018-04-12T11:11:11.155Z,12.67
2018-04-12T11:13:43.775Z,7.03
2018-04-12T11:16:17.233Z,6.97
2018-04-12T11:18:49.595Z,6.03
2018-04-12T11:21:22.083Z,10.87
2018-04-12T11:23:54.907Z,14.50
2018-04-12T11:26:27.867Z,13.27
2018-04-12T11:28:59.988Z,9.87
2018-04-12T11:31:34.908Z,11.63
2018-04-12T11:34:08.076Z,8.23
2018-04-12T11:36:39.482Z,6.67
2018-04-12T11:39:12.864Z,7.70
2018-04-12T11:41:44.768Z,9.80
2018-04-12T11:44:16.374Z,13.57
2018-04-12T11:46:50.187Z,8.73
2018-04-12T11:49:23.631Z,6.87
2018-04-12T11:51:59.336Z,8.63
2018-04-12T11:54:31.439Z,9.40
2018-04-12T11:57:04.645Z,8.23
2018-04-12T11:59:36.658Z,7.03
2018-04-12T12:02:09.479Z,11.90
2018-04-12T12:04:42.037Z,10.40
2018-04-12T12:07:15.096Z,9.00
2018-04-12T12:09:46.685Z,9.83
2018-04-12T12:12:18.684Z,9.20
2018-04-12T12:14:50.628Z,9.73
2018-04-12T12:17:24.277Z,6.57
2018-04-12T12:19:56.693Z,8.10
2018-04-12T12:22:28.721Z,7.37
2018-04-12T12:25:00.412Z,9.90
2018-04-12T12:27:32.755Z,7.23
2018-04-12T12:30:05.151Z,6.50
2018-04-12T12:32:37.502Z,10.33
2018-04-12T12:35:12.470Z,11.63
2018-04-12T12:37:45.485Z,9.17
2018-04-12T12:40:18.416Z,15.97
2018-04-12T12:42:51.627Z,6.03
2018-04-12T12:45:24.235Z,11.27
2018-04-12T12:47:56.656Z,7.03
2018-04-12T12:50:27.926Z,8.53
2018-04-12T12:52:59.392Z,9.83
2018-04-12T12:55:35.129Z,7.57
2018-04-12T12:58:07.809Z,9.10
2018-04-12T13:00:40.104Z,8.47
2018-04-12T13:03:15.156Z,12.13
2018-04-12T13:05:46.825Z,8.00
2018-04-12T13:08:19.733Z,13.57
2018-04-12T13:10:54.212Z,7.93
2018-04-12T13:13:26.646Z,8.17
2018-04-12T13:15:58.930Z,9.30
2018-04-12T13:18:31.209Z,13.87
2018-04-12T13:21:03.456Z,7.43
2018-04-12T13:23:35.787Z,11.43
2018-04-12T13:26:09.229Z,10.50
2018-04-12T13:28:41.884Z,9.20
2018-04-12T13:31:13.552Z,11.97
2018-04-12T13:33:45.139Z,12.67
2018-04-12T13:36:17.239Z,9.60
2018-04-12T13:38:50.460Z,10.67
2018-04-12T13:41:22.974Z,7.67
2018-04-12T13:43:56.723Z,9.73
2018-04-12T13:46:29.667Z,9.63
2018-04-12T13:49:01.713Z,12.27
2018-04-12T13:51:33.314Z,8.50
2018-04-12T13:54:05.964Z,7.67
2018-04-12T13:56:39.112Z,10.37
2018-04-12T13:59:11.191Z,12.77
2018-04-12T14:01:42.491Z,8.20
2018-04-12T14:04:14.891Z,11.87
2018-04-12T14:06:47.275Z,8.83
2018-04-12T14:09:23.323Z,6.03
2018-04-12T14:11:54.760Z,8.50
2018-04-12T14:14:27.246Z,10.63
2018-04-12T14:17:00.295Z,8.43
2018-04-12T14:19:33.562Z,7.80
2018-04-12T14:22:08.073Z,9.87
2018-04-12T14:24:43.395Z,6.07
2018-04-12T14:27:19.666Z,6.83
2018-04-12T14:29:52.175Z,12.00
2018-04-12T14:32:28.235Z,11.97
2018-04-12T14:35:04.022Z,8.37
2018-04-12T14:37:36.085Z,10.33
2018-04-12T14:40:08.114Z,10.27
2018-04-12T14:42:40.650Z,12.50
2018-04-12T14:45:13.661Z,5.87
2018-04-12T14:47:46.774Z,8.87
2018-04-12T14:50:20.099Z,9.47
2018-04-12T14:52:53.195Z,7.33
2018-04-12T14:55:28.458Z,9.37
2018-04-12T14:58:00.360Z,7.90
2018-04-12T15:00:33.441Z,10.07
2018-04-12T15:03:08.057Z,6.43
2018-04-12T15:05:41.612Z,9.40
2018-04-12T15:08:14.627Z,11.73
2018-04-12T15:10:50.103Z,7.93
2018-04-12T15:13:23.472Z,10.53
2018-04-12T15:15:55.617Z,9.80
2018-04-12T15:18:28.350Z,8.50
2018-04-12T15:21:00.968Z,9.40
2018-04-12T15:23:34.327Z,10.27
2018-04-12T15:26:07.016Z,6.60
2018-04-12T15:28:38.176Z,12.03
2018-04-12T15:31:09.303Z,9.30
2018-04-12T15:33:42.718Z,10.40
2018-04-12T15:36:15.375Z,6.50
2018-04-12T15:38:47.358Z,7.63
2018-04-12T15:41:19.509Z,7.20
2018-04-12T15:43:53.225Z,11.73
2018-04-12T15:46:24.444Z,13.33
2018-04-12T15:48:57.136Z,6.43
2018-04-12T15:51:29.067Z,7.50
2018-04-12T15:54:01.799Z,7.10
2018-04-12T15:56:34.289Z,14.67
2018-04-12T15:59:07.065Z,9.83
2018-04-12T16:01:41.147Z,11.90
2018-04-12T16:04:16.151Z,9.67
2018-04-12T16:06:47.851Z,6.10
2018-04-12T16:09:21.452Z,10.03
2018-04-12T16:11:54.415Z,7.27
2018-04-12T16:14:26.092Z,14.23
2018-04-12T16:16:59.951Z,11.43
2018-04-12T16:19:32.192Z,8.87
2018-04-12T16:22:05.643Z,10.43
2018-04-12T16:24:39.267Z,13.63
2018-04-12T16:27:13.570Z,12.13
2018-04-12T16:29:46.723Z,11.53
2018-04-12T16:32:19.251Z,10.97
2018-04-12T16:34:51.657Z,10.40
2018-04-12T16:37:25.412Z,10.60
2018-04-12T16:39:58.311Z,9.60
2018-04-12T16:42:30.807Z,12.60
2018-04-12T16:45:04.617Z,8.10
2018-04-12T16:47:36.475Z,8.63
2018-04-12T16:50:10.343Z,9.83
2018-04-12T16:52:42.805Z,11.13
2018-04-12T16:55:16.111Z,11.63
2018-04-12T16:57:51.008Z,12.20
2018-04-12T17:00:23.644Z,14.57
2018-04-12T17:02:55.999Z,9.43
2018-04-12T17:05:29.352Z,15.20
2018-04-12T17:08:01.999Z,9.10
2018-04-12T17:10:35.331Z,11.47
2018-04-12T17:13:08.701Z,10.40
2018-04-12T17:15:42.753Z,9.83
2018-04-12T17:18:15.148Z,13.10
2018-04-12T17:20:46.675Z,9.57
2018-04-12T17:23:18.037Z,14.27
2018-04-12T17:25:51.659Z,16.93
2018-04-12T17:28:23.764Z,14.80
2018-04-12T17:30:56.267Z,8.90
2018-04-12T17:33:29.886Z,13.10
2018-04-12T17:36:04.795Z,13.13
2018-04-12T17:38:39.203Z,11.80
2018-04-12T17:41:11.216Z,16.00
2018-04-12T17:43:42.582Z,12.50
2018-04-12T17:46:16.455Z,10.87
2018-04-12T17:48:48.799Z,14.93
2018-04-12T17:51:20.146Z,14.70
2018-04-12T17:53:52.202Z,15.70
2018-04-12T17:56:26.178Z,14.23
2018-04-12T17:58:57.885Z,16.90
2018-04-12T18:01:32.219Z,19.20
2018-04-12T18:04:06.206Z,15.87
2018-04-12T18:06:41.506Z,19.97
2018-04-12T18:09:14.764Z,14.60
2018-04-12T18:11:48.056Z,16.13
2018-04-12T18:14:21.859Z,18.53
2018-04-12T18:16:54.999Z,14.30
2018-04-12T18:19:27.502Z,15.63
2018-04-12T18:22:00.220Z,18.80
2018-04-12T18:24:32.631Z,16.07
2018-04-12T18:27:05.616Z,17.30
2018-04-12T18:29:37.647Z,26.50
2018-04-12T18:32:11.825Z,16.70
2018-04-12T18:34:45.333Z,15.50
2018-04-12T18:37:17.983Z,12.03
2018-04-12T18:39:51.375Z,15.87
2018-04-12T18:42:23.726Z,20.03
2018-04-12T18:44:56.676Z,22.50
2018-04-12T18:47:29.591Z,13.27
2018-04-12T18:50:02.022Z,19.00
2018-04-12T18:52:35.316Z,22.43
2018-04-12T18:55:07.280Z,16.33
2018-04-12T18:57:38.500Z,18.10
2018-04-12T19:00:09.499Z,15.90
2018-04-12T19:02:42.158Z,16.27
2018-04-12T19:05:13.398Z,20.20
2018-04-12T19:07:44.848Z,17.97
2018-04-12T19:10:17.931Z,20.73
2018-04-12T19:12:50.931Z,19.07
2018-04-12T19:15:22.733Z,16.03
2018-04-12T19:17:54.761Z,16.33
2018-04-12T19:20:27.780Z,13.20
2018-04-12T19:22:59.589Z,15.43
2018-04-12T19:25:31.286Z,19.63
2018-04-12T19:30:43.090Z,22.07
2018-04-12T19:33:15.296Z,21.17
2018-04-12T19:35:48.134Z,18.30
2018-04-12T19:38:20.483Z,17.43
2018-04-12T19:40:53.216Z,10.77
2018-04-12T19:43:28.432Z,18.07
2018-04-12T19:46:00.623Z,12.60
2018-04-12T19:48:37.488Z,18.77
2018-04-12T19:51:10.920Z,13.50
2018-04-12T19:53:42.641Z,17.00
2018-04-12T19:56:14.293Z,19.00
2018-04-12T19:58:47.002Z,12.63
2018-04-12T20:01:20.360Z,17.87
2018-04-12T20:03:53.003Z,20.17
2018-04-12T20:06:24.909Z,15.40
2018-04-12T20:08:56.319Z,20.23
2018-04-12T20:11:28.673Z,18.57
2018-04-12T20:14:00.360Z,19.57
2018-04-12T20:16:33.250Z,14.43
2018-04-12T20:19:04.747Z,20.40
2018-04-12T20:21:36.276Z,18.63
2018-04-12T20:24:11.556Z,14.80
2018-04-12T20:26:43.711Z,14.50
2018-04-12T20:29:17.083Z,16.37
2018-04-12T20:31:49.353Z,16.23
2018-04-12T20:34:22.680Z,18.50
2018-04-12T20:36:56.131Z,25.80
2018-04-12T20:39:30.847Z,14.47
2018-04-12T20:42:03.928Z,16.77
2018-04-12T20:44:38.169Z,17.03
2018-04-12T20:47:11.579Z,20.30
2018-04-12T20:49:44.352Z,18.70
2018-04-12T20:52:15.934Z,18.13
2018-04-12T20:54:48.336Z,26.17
2018-04-12T20:57:20.278Z,23.47
2018-04-12T20:59:53.636Z,18.53
2018-04-12T21:02:25.221Z,17.37
2018-04-12T21:04:57.375Z,18.23
2018-04-12T21:07:33.671Z,18.77
2018-04-12T21:10:06.504Z,23.60
2018-04-12T21:12:37.776Z,14.67
2018-04-12T21:15:11.359Z,18.83
2018-04-12T21:17:45.926Z,25.27
2018-04-12T21:20:17.771Z,25.47
2018-04-12T21:22:51.714Z,15.93
2018-04-12T21:25:24.877Z,19.03
2018-04-12T21:27:56.870Z,18.27
2018-04-12T21:30:29.701Z,13.23
2018-04-12T21:33:02.446Z,17.13
2018-04-12T21:35:34.640Z,16.53
2018-04-12T21:38:07.520Z,21.17
2018-04-12T21:40:39.295Z,18.53
2018-04-12T21:43:11.842Z,19.43
2018-04-12T21:45:45.027Z,24.73
2018-04-12T21:48:16.740Z,22.10
2018-04-12T21:50:48.724Z,16.37
2018-04-12T21:53:21.563Z,16.57
2018-04-12T21:55:53.023Z,15.97
2018-04-12T21:58:27.097Z,15.30
2018-04-12T22:00:59.879Z,15.38
2018-04-12T22:03:32.869Z,18.48
2018-04-12T22:06:04.310Z,14.63
2018-04-12T22:08:36.368Z,14.50
2018-04-12T22:11:08.016Z,17.50
2018-04-12T22:13:40.522Z,16.33
2018-04-12T22:16:12.207Z,18.87
2018-04-12T22:18:45.064Z,20.60
2018-04-12T22:21:18.872Z,15.63
2018-04-12T22:23:50.316Z,20.60
2018-04-12T22:26:23.927Z,18.75
2018-04-12T22:28:56.163Z,17.42
2018-04-12T22:31:29.188Z,14.27
2018-04-12T22:34:01.743Z,18.13
2018-04-12T22:36:32.491Z,18.00
2018-04-12T22:39:04.441Z,13.40
2018-04-12T22:41:37.169Z,18.65
2018-04-12T22:44:12.151Z,18.57
2018-04-12T22:46:44.903Z,18.80
2018-04-12T22:49:17.571Z,19.10
2018-04-12T22:51:50.398Z,18.90
2018-04-12T22:54:22.246Z,20.05
2018-04-12T22:56:56.638Z,17.98
2018-04-12T22:59:42.041Z,15.48
2018-04-12T23:02:15.030Z,18.27
2018-04-12T23:04:47.817Z,16.80
2018-04-12T23:07:22.242Z,17.50
2018-04-12T23:09:56.078Z,16.80
2018-04-12T23:12:28.222Z,12.20
2018-04-12T23:15:01.081Z,16.90
2018-04-12T23:17:33.337Z,20.70
2018-04-12T23:20:06.911Z,12.77
2018-04-12T23:22:39.184Z,17.55
2018-04-12T23:25:13.334Z,19.42
2018-04-12T23:27:45.151Z,14.70
2018-04-12T23:30:20.445Z,15.13
2018-04-12T23:32:53.021Z,17.08
2018-04-12T23:35:25.512Z,12.90
2018-04-12T23:37:58.074Z,14.52
2018-04-12T23:40:31.858Z,13.60
2018-04-12T23:43:04.271Z,11.75
2018-04-12T23:45:36.623Z,13.85
2018-04-12T23:48:09.150Z,11.12
2018-04-12T23:50:42.328Z,17.48
2018-04-12T23:53:14.696Z,19.02
2018-04-12T23:55:46.687Z,10.98
2018-04-12T23:58:19.661Z,18.87
